createdAt,value
2023-03-10T00:04:37.176Z,1.45
2023-03-10T00:09:38.646Z,1.30
2023-03-10T00:14:40.177Z,1.15
2023-03-10T00:19:41.615Z,1.63
2023-03-10T00:24:43.166Z,1.58
2023-03-10T00:29:44.642Z,1.10
2023-03-10T00:34:46.150Z,1.30
2023-03-10T00:39:51.648Z,1.33
2023-03-10T00:44:53.194Z,1.33
2023-03-10T00:49:54.753Z,1.75
2023-03-10T00:54:56.350Z,1.65
2023-03-10T00:59:57.857Z,1.20
2023-03-10T01:04:59.299Z,1.30
2023-03-10T01:10:00.757Z,1.85
2023-03-10T01:15:02.424Z,1.40
2023-03-10T01:20:05.205Z,1.27
2023-03-10T01:25:07.229Z,3.05
2023-03-10T01:30:10.002Z,1.48
2023-03-10T01:35:12.020Z,1.35
2023-03-10T01:40:15.456Z,1.80
2023-03-10T01:45:16.908Z,1.85
2023-03-10T01:50:19.550Z,1.63
2023-03-10T01:55:29.464Z,1.40
2023-03-10T02:00:31.082Z,1.50
2023-03-10T02:05:33.786Z,1.80
2023-03-10T02:10:36.272Z,1.98
2023-03-10T02:15:39.057Z,2.22
2023-03-10T02:21:09.833Z,1.30
2023-03-10T02:26:31.616Z,1.63
2023-03-10T02:31:33.765Z,1.60
2023-03-10T02:36:35.657Z,1.92
2023-03-10T02:41:40.036Z,2.60
2023-03-10T02:46:45.676Z,1.42
2023-03-10T02:51:47.419Z,1.52
2023-03-10T02:56:52.037Z,1.30
2023-03-10T03:01:54.348Z,1.10
2023-03-10T03:06:55.960Z,1.10
2023-03-10T03:11:57.825Z,0.98
2023-03-10T03:16:59.707Z,0.88
2023-03-10T03:22:02.006Z,1.00
2023-03-10T03:27:05.240Z,0.80
2023-03-10T03:32:07.439Z,0.90
2023-03-10T03:37:10.024Z,1.02
2023-03-10T03:42:13.804Z,0.85
2023-03-10T03:47:23.537Z,1.15
2023-03-10T03:52:25.386Z,1.05
2023-03-10T03:57:28.182Z,0.90
2023-03-10T04:02:29.863Z,1.17
2023-03-10T04:07:31.629Z,1.30
2023-03-10T04:12:34.015Z,1.40
2023-03-10T04:17:36.347Z,1.00
2023-03-10T04:22:38.275Z,0.98
2023-03-10T04:27:41.364Z,0.95
2023-03-10T04:32:43.805Z,1.20
2023-03-10T04:37:45.471Z,1.23
2023-03-10T04:42:48.774Z,0.90
2023-03-10T04:47:50.680Z,1.17
2023-03-10T04:52:52.322Z,1.15
2023-03-10T04:57:58.817Z,1.10
2023-03-10T05:03:00.606Z,1.23
2023-03-10T05:08:02.654Z,1.20
2023-03-10T05:13:05.467Z,1.05
2023-03-10T05:18:10.428Z,1.20
2023-03-10T05:23:12.066Z,1.00
2023-03-10T05:28:13.827Z,1.20
2023-03-10T05:33:16.524Z,1.10
2023-03-10T05:38:18.397Z,1.30
2023-03-10T05:43:20.344Z,1.33
2023-03-10T05:48:23.581Z,1.50
2023-03-10T05:53:25.297Z,1.30
2023-03-10T05:58:27.003Z,1.92
2023-03-10T06:03:29.298Z,1.83
2023-03-10T06:08:31.099Z,1.85
2023-03-10T06:13:32.729Z,1.80
2023-03-10T06:18:34.835Z,1.88
2023-03-10T06:23:36.882Z,1.60
2023-03-10T06:28:40.980Z,1.25
2023-03-10T06:33:42.768Z,1.30
2023-03-10T06:38:44.478Z,1.60
2023-03-10T06:43:46.328Z,2.88
2023-03-10T06:48:47.931Z,2.50
2023-03-10T06:53:49.838Z,2.42
2023-03-10T06:58:51.288Z,2.28
2023-03-10T07:03:53.688Z,1.35
2023-03-10T07:08:55.159Z,1.30
2023-03-10T07:13:56.751Z,1.00
2023-03-10T07:18:58.206Z,1.20
2023-03-10T07:23:59.725Z,0.90
2023-03-10T07:29:01.420Z,0.90
2023-03-10T07:34:03.066Z,0.98
2023-03-10T07:39:05.866Z,1.05
2023-03-10T07:44:07.557Z,1.00
2023-03-10T07:49:09.205Z,1.90
2023-03-10T07:54:13.614Z,1.00
2023-03-10T07:59:15.146Z,0.85
2023-03-10T08:04:16.816Z,1.17
2023-03-10T08:09:18.482Z,1.02
2023-03-10T08:14:21.080Z,3.63
2023-03-10T08:19:26.974Z,0.80
2023-03-10T08:24:28.536Z,1.10
2023-03-10T08:29:30.009Z,1.30
2023-03-10T08:34:33.551Z,1.00
2023-03-10T08:39:35.196Z,1.45
2023-03-10T08:44:36.824Z,1.40
2023-03-10T08:49:38.371Z,1.60
2023-03-10T08:54:39.924Z,2.00
2023-03-10T08:59:41.452Z,1.00
2023-03-10T09:04:43.481Z,1.10
2023-03-10T09:09:45.072Z,0.93
2023-03-10T09:14:47.278Z,1.10
2023-03-10T09:19:48.747Z,1.23
2023-03-10T09:24:50.210Z,1.10
2023-03-10T09:29:51.684Z,1.20
2023-03-10T09:34:53.551Z,1.02
2023-03-10T09:39:55.027Z,1.00
2023-03-10T09:45:13.211Z,2.00
2023-03-10T09:50:36.496Z,0.90
2023-03-10T09:55:47.387Z,1.00
2023-03-10T10:00:49.805Z,1.00
2023-03-10T10:05:53.150Z,0.80
2023-03-10T10:10:59.624Z,0.90
2023-03-10T10:16:33.901Z,0.88
2023-03-10T10:21:46.679Z,0.98
2023-03-10T10:26:48.418Z,0.90
2023-03-10T10:32:02.054Z,1.00
2023-03-10T10:37:21.909Z,0.80
2023-03-10T10:42:27.879Z,0.68
2023-03-10T10:47:32.268Z,0.70
2023-03-10T10:52:33.794Z,0.70
2023-03-10T10:57:37.385Z,0.70
2023-03-10T11:02:38.987Z,0.80
2023-03-10T11:07:40.647Z,0.63
2023-03-10T11:13:00.721Z,0.63
2023-03-10T11:18:33.808Z,0.70
2023-03-10T11:24:11.993Z,0.60
2023-03-10T11:29:22.850Z,0.60
2023-03-10T11:34:29.365Z,0.60
2023-03-10T11:39:51.111Z,0.60
2023-03-10T11:45:01.380Z,0.55
2023-03-10T11:50:18.449Z,0.50
2023-03-10T11:55:21.561Z,0.57
2023-03-10T12:00:34.518Z,0.57
2023-03-10T12:05:56.014Z,0.70
2023-03-10T12:11:01.133Z,0.60
2023-03-10T12:16:06.186Z,0.60
2023-03-10T12:21:28.630Z,0.60
2023-03-10T12:26:38.923Z,0.70
2023-03-10T12:31:40.409Z,0.80
2023-03-10T12:36:45.210Z,0.80
2023-03-10T12:41:48.096Z,0.60
2023-03-10T12:46:59.739Z,0.70
2023-03-10T12:52:06.996Z,0.60
2023-03-10T12:57:36.389Z,0.70
2023-03-10T13:02:51.118Z,0.70
2023-03-10T13:07:57.340Z,0.70
2023-03-10T13:13:04.272Z,0.73
2023-03-10T13:18:18.205Z,0.70
2023-03-10T13:23:34.684Z,0.80
2023-03-10T13:28:36.339Z,0.70
2023-03-10T13:33:52.307Z,0.80
2023-03-10T13:38:54.626Z,0.70
2023-03-10T13:43:56.188Z,1.10
2023-03-10T13:49:02.103Z,0.82
2023-03-10T13:54:32.608Z,0.68
2023-03-10T13:59:36.030Z,0.70
2023-03-10T14:04:43.208Z,0.80
2023-03-10T14:10:03.661Z,0.70
2023-03-10T14:15:25.333Z,0.70
2023-03-10T14:20:34.137Z,0.60
2023-03-10T14:25:35.599Z,0.70
2023-03-10T14:30:37.129Z,0.70
2023-03-10T14:35:38.629Z,0.70
2023-03-10T14:41:00.454Z,0.70
2023-03-10T14:46:02.176Z,0.70
2023-03-10T14:51:03.812Z,0.80
2023-03-10T14:56:05.920Z,0.70
2023-03-10T15:01:07.458Z,0.70
2023-03-10T15:06:13.479Z,0.75
2023-03-10T15:11:17.440Z,0.80
2023-03-10T15:16:23.027Z,0.80
2023-03-10T15:21:24.595Z,0.82
2023-03-10T15:26:26.183Z,0.90
2023-03-10T15:31:27.794Z,1.30
2023-03-10T15:36:29.262Z,1.50
2023-03-10T15:41:34.415Z,1.35
2023-03-10T15:46:35.975Z,1.05
2023-03-10T15:51:37.474Z,1.42
2023-03-10T15:56:39.613Z,2.00
2023-03-10T16:01:41.291Z,1.23
2023-03-10T16:06:42.792Z,1.83
2023-03-10T16:11:44.220Z,1.63
2023-03-10T16:16:45.702Z,2.47
2023-03-10T16:21:47.164Z,2.83
2023-03-10T16:26:48.968Z,2.05
2023-03-10T16:31:50.557Z,4.45
2023-03-10T16:36:52.033Z,2.90
2023-03-10T16:41:53.544Z,1.98
2023-03-10T16:46:55.085Z,1.73
2023-03-10T16:51:56.612Z,2.67
2023-03-10T16:56:58.088Z,2.13
2023-03-10T17:01:59.582Z,2.08
2023-03-10T17:07:01.024Z,3.25
2023-03-10T17:12:02.502Z,2.22
2023-03-10T17:17:06.532Z,3.65
2023-03-10T17:22:09.228Z,3.30
2023-03-10T17:27:10.713Z,2.60
2023-03-10T17:32:12.573Z,5.70
2023-03-10T17:37:14.078Z,4.38
2023-03-10T17:42:15.929Z,2.83
2023-03-10T17:47:17.443Z,3.67
2023-03-10T17:52:18.962Z,3.15
2023-03-10T17:57:20.880Z,2.83
2023-03-10T18:02:22.455Z,2.58
2023-03-10T18:07:24.113Z,2.75
2023-03-10T18:12:25.639Z,2.30
2023-03-10T18:17:27.151Z,4.25
2023-03-10T18:22:28.592Z,3.47
2023-03-10T18:27:33.425Z,2.75
2023-03-10T18:32:35.020Z,2.42
2023-03-10T18:37:36.527Z,2.70
2023-03-10T18:42:38.036Z,2.75
2023-03-10T18:47:39.567Z,2.50
2023-03-10T18:52:42.172Z,3.17
2023-03-10T18:57:44.533Z,2.42
2023-03-10T19:02:46.191Z,3.58
2023-03-10T19:07:47.736Z,3.00
2023-03-10T19:12:49.418Z,2.67
2023-03-10T19:17:50.971Z,3.25
2023-03-10T19:22:52.513Z,2.35
2023-03-10T19:27:53.976Z,2.83
2023-03-10T19:32:55.450Z,2.30
2023-03-10T19:37:56.994Z,2.35
2023-03-10T19:42:58.471Z,2.63
2023-03-10T19:47:59.984Z,2.40
2023-03-10T19:53:01.450Z,1.88
2023-03-10T19:58:02.891Z,2.38
2023-03-10T20:03:04.528Z,2.15
2023-03-10T20:08:06.072Z,2.25
2023-03-10T20:13:07.624Z,2.25
2023-03-10T20:18:09.126Z,2.47
2023-03-10T20:23:10.699Z,3.13
2023-03-10T20:28:13.247Z,1.90
2023-03-10T20:33:14.708Z,2.22
2023-03-10T20:38:16.332Z,2.10
2023-03-10T20:43:18.127Z,3.08
2023-03-10T20:48:19.621Z,2.50
2023-03-10T20:53:21.250Z,2.50
2023-03-10T20:58:22.717Z,2.47
2023-03-10T21:03:24.221Z,1.92
2023-03-10T21:08:25.688Z,2.75
2023-03-10T21:13:27.243Z,2.47
2023-03-10T21:18:28.692Z,3.78
2023-03-10T21:23:30.199Z,2.30
2023-03-10T21:28:42.113Z,2.60
2023-03-10T21:33:43.616Z,2.25
2023-03-10T21:38:45.295Z,1.98
2023-03-10T21:43:46.759Z,2.05
2023-03-10T21:48:48.233Z,2.83
2023-03-10T21:53:51.173Z,2.00
2023-03-10T21:58:52.728Z,2.03
2023-03-10T22:03:54.636Z,1.90
2023-03-10T22:08:56.222Z,2.20
2023-03-10T22:13:57.755Z,2.20
2023-03-10T22:18:59.270Z,2.40
2023-03-10T22:24:00.800Z,2.40
2023-03-10T22:29:02.340Z,1.80
2023-03-10T22:34:03.923Z,2.08
2023-03-10T22:39:05.377Z,2.03
2023-03-10T22:44:07.072Z,2.05
2023-03-10T22:49:08.568Z,2.10
2023-03-10T22:54:10.031Z,2.28
2023-03-10T22:59:11.539Z,2.42
2023-03-10T23:04:13.067Z,2.60
2023-03-10T23:09:14.606Z,2.40
2023-03-10T23:14:16.147Z,3.22
2023-03-10T23:19:17.591Z,2.33
2023-03-10T23:24:19.090Z,2.70
2023-03-10T23:29:20.606Z,2.42
2023-03-10T23:34:22.152Z,2.40
2023-03-10T23:39:24.089Z,2.38
2023-03-10T23:44:25.525Z,2.70
2023-03-10T23:49:27.077Z,2.00
2023-03-10T23:54:28.554Z,2.35
2023-03-10T23:59:30.054Z,2.70
